VAM | Vabird-VBD

Virtual Vabird! Aerolínea Virtual de habla hispana, desde 2011




 INFORMACIÓN METAR y TAF
METAR FOR ULLI
ADDS - METARS form results

(1621 UTC 08 March 2021)
Data provider http://aviationweather.gov/metar/data/
 
METAR text: ULLI 081600Z 35003MPS 9999 FEW020CB SCT036 M08/M14 Q1014 R28L/290050 NOSIG
Conditions at: ULLI (ST PETERSBURG , RU) observed 1600 UTC 08 March 2021
Temperature: -8.0°C (18°F)
Dewpoint: -14.0°C ( 7°F) [RH = 62%]
Pressure (altimeter): 29.94 inches Hg (1014.0 mb)
Winds: from the N (350 degrees) at 7 MPH (6 knots; 3.1 m/s)
Visibility: 6 or more miles (10+ km)
Ceiling: at least 12,000 feet AGL
Clouds: few clouds at 2000 feet AGL
scattered clouds at 3600 feet AGL
Weather: no significant weather observed at this time

METAR text: ULLI 081530Z 33004MPS 9999 FEW016CB SCT031 M07/M14 Q1014 R28L/290050 NOSIG
Conditions at: ULLI (ST PETERSBURG , RU) observed 1530 UTC 08 March 2021
Temperature: -7.0°C (19°F)
Dewpoint: -14.0°C ( 7°F) [RH = 57%]
Pressure (altimeter): 29.94 inches Hg (1014.0 mb)
Winds: from the NNW (330 degrees) at 9 MPH (8 knots; 4.1 m/s)
Visibility: 6 or more miles (10+ km)
Ceiling: at least 12,000 feet AGL
Clouds: few clouds at 1600 feet AGL
scattered clouds at 3100 feet AGL
Weather: no significant weather observed at this time

Forecast for: ULLI (ST PETERSBURG , RU)
Text: TAF ULLI 081358Z 0815/0915 34003MPS 9999 -SN BKN016
Forecast period: 1500 UTC 08 March 2021 to 0700 UTC 09 March 2021
Forecast type: FROM: standard forecast or significant change
Winds: from the NNW (340 degrees) at 7 MPH (6 knots; 3.1 m/s)
Visibility: 6 or more miles (10+ km)
Ceiling: 1600 feet AGL
Clouds: broken clouds at 1600 feet AGL
Weather: -SN  (light snow)
Text: TEMPO 0815/0818 02005G10MPS 4000 -SHSN BKN016CB
Forecast period: 1500 to 1800 UTC 08 March 2021
Forecast type: TEMPORARY: The following changes expected for less than half the time period
Winds: from the NNE (20 degrees) at 12 MPH (10 knots; 5.1 m/s)
gusting to 22 MPH (19 knots; 9.8 m/s)
Visibility: 2.49 miles (4.01 km)
Ceiling: 1600 feet AGL
Clouds: broken clouds at 1600 feet AGL
Weather: -SHSN  (light snow showers)
Text: TEMPO 0821/0907 3100 -SN BR SCT010 BKN016
Forecast period: 2100 UTC 08 March 2021 to 0700 UTC 09 March 2021
Forecast type: TEMPORARY: The following changes expected for less than half the time period
Visibility: 1.93 miles (3.11 km)
Ceiling: 1600 feet AGL
Clouds: scattered clouds at 1000 feet AGL
broken clouds at 1600 feet AGL
Weather: -SN BR  (light snow, mist)
Text: BECMG 0907/0908 07003G08MPS
Forecast period: 0700 to 1500 UTC 09 March 2021
Forecast type: BECOMING: Conditions expected to become as follows by 0800 UTC 09 March 2021
Winds: from the ENE (70 degrees) at 7 MPH (6 knots; 3.1 m/s)
gusting to 18 MPH (16 knots; 8.2 m/s)
Visibility: 6 or more miles (10+ km)
Ceiling: 1600 feet AGL
Clouds: broken clouds at 1600 feet AGL
Weather: -SN  (light snow)

 MAPA DE AEROPUERTO

 INFORMACIÓN DE PISTA